Pettigrew, Arkansas
Current Conditions -  °F | °C
As of 11:33 PM on Tuesday 21 Oct 2014 (Local Time) from KFYV Reporting Station
Haze Haze  
Wind Chill: 50°   Ceiling: Unl
Heat Index: 50°   Visibility: 5mi
Dew Point: 50°   Wind: 0mph
Humidity: 100%   Direction: NA
Pressure: 30.13"   Gusts: NA
Location:  35.82°N, 93.65°W
Report Text: KFYV 220433Z 00000KT 5SM BR FEW003 10/10 A3013 RMK AO2 T01000100
Loading
Personal Weather Stations






























Interactive Weather Map
Tropical Storm Tracking
New forecast layout! Learn more

10-Day Weather Forecast

Advertisements
Track Severe Weather on mobile